Strona główna
METAR-TAF:

METAR-TAF

Lotnisko :

Poznań, Polska

Port lotniczy Poznań-Ławica

Szerokość geograficzna: 52-25N, Długość geograficzna: 016-50E, wysokość: 86 m

Aktualna obserwacja pogody

Raport powstał 22 minut temu, godzina 05:30 UTC
Wiatr 7 kt od północny zachód
Temperatura 11°C
Wilgotność 100%
Ciśnienie 1021 hPa
Widzialność: 5000 m
Przerywane chmury na wysokości 200 ft
zamglenie

METAR: EPPO 230530Z 31007KT 5000 BR BKN002 11/11 Q1021

czas: 07:52 (05:52 UTC)

Prognoza

Raport powstał 22 minut temu, godzina 05:30 UTC
Prognoza ważna od 23 godzina 06 UTC do 24 godzina 06 UTC
Wiatr 10 kt od północ
Widzialność: 5000 m
Przerywane chmury na wysokości 900 ft
słaby deszcz, zamglenie
Przejściowo
od 23 godzina 06 UTC do 23 godzina 11 UTC
Widzialność: 4000 m
Przerywane chmury na wysokości 400 ft
słaby deszcz, zamglenie

TAF: EPPO 230530Z 2306/2406 35010KT 5000 -RA BR BKN009 TEMPO 2306/2311 4000 -RA BR BKN004

Obserwacja i prognoza pogody dla ponad 4000 lotnisk (raport METAR i TAF).

Dostępne stacje oznaczono żółtymi i czerwonymi punktami na mapie.

Najedź kursorem aby zobaczyć nazwę stacji.

Kliknij aby zobaczyć obserwacje i prognozy pogody.

Aby zmienić mapę: kliknij na zielony przycisk z czarnym krzyżykiem, aby powiększyć; na zielony przycisk z myślnikiem, aby pomniejszyć; na zielone strzałki, aby przejść do map sąsiednich.


METAR-TAF: